createdAt,value
2023-04-26T00:01:32.855Z,10.70
2023-04-26T00:04:00.817Z,10.73
2023-04-26T00:06:28.113Z,10.70
2023-04-26T00:08:55.686Z,10.68
2023-04-26T00:11:23.049Z,10.75
2023-04-26T00:13:50.011Z,10.79
2023-04-26T00:16:18.579Z,10.79
2023-04-26T00:18:46.433Z,10.88
2023-04-26T00:21:13.424Z,10.86
2023-04-26T00:23:40.864Z,10.89
2023-04-26T00:26:08.057Z,10.99
2023-04-26T00:28:35.083Z,11.05
2023-04-26T00:31:01.942Z,11.08
2023-04-26T00:33:28.975Z,11.06
2023-04-26T00:35:56.715Z,11.14
2023-04-26T00:38:23.513Z,11.15
2023-04-26T00:40:51.467Z,11.17
2023-04-26T00:43:18.641Z,11.22
2023-04-26T00:45:46.208Z,11.22
2023-04-26T00:48:13.263Z,11.22
2023-04-26T00:50:40.393Z,11.24
2023-04-26T00:53:09.041Z,11.17
2023-04-26T00:55:36.878Z,11.07
2023-04-26T00:58:03.994Z,11.15
2023-04-26T01:00:30.835Z,11.10
2023-04-26T01:02:57.982Z,11.05
2023-04-26T01:05:25.241Z,10.97
2023-04-26T01:07:52.458Z,11.00
2023-04-26T01:10:19.368Z,10.98
2023-04-26T01:12:46.874Z,10.98
2023-04-26T01:15:18.510Z,11.00
2023-04-26T01:17:48.371Z,10.96
2023-04-26T01:20:15.639Z,10.86
2023-04-26T01:22:42.757Z,10.90
2023-04-26T01:25:12.332Z,10.89
2023-04-26T01:27:40.028Z,10.89
2023-04-26T01:30:08.544Z,10.86
2023-04-26T01:32:36.106Z,10.85
2023-04-26T01:35:04.114Z,10.73
2023-04-26T01:37:31.272Z,10.80
2023-04-26T01:40:00.213Z,10.82
2023-04-26T01:42:27.291Z,10.73
2023-04-26T01:44:54.442Z,10.69
2023-04-26T01:47:22.298Z,10.62
2023-04-26T01:49:49.264Z,10.76
2023-04-26T01:52:16.931Z,10.76
2023-04-26T01:54:45.929Z,10.71
2023-04-26T01:57:12.919Z,10.78
2023-04-26T01:59:39.858Z,10.84
2023-04-26T02:02:07.113Z,10.86
2023-04-26T02:04:37.902Z,10.81
2023-04-26T02:07:04.838Z,10.79
2023-04-26T02:09:31.601Z,10.74
2023-04-26T02:11:58.598Z,10.73
2023-04-26T02:14:26.799Z,10.68
2023-04-26T02:16:53.965Z,10.71
2023-04-26T02:19:21.142Z,10.63
2023-04-26T02:21:52.984Z,10.61
2023-04-26T02:24:20.124Z,10.64
2023-04-26T02:26:47.229Z,10.59
2023-04-26T02:29:14.331Z,10.55
2023-04-26T02:31:41.568Z,10.57
2023-04-26T02:34:08.688Z,10.61
2023-04-26T02:36:36.050Z,10.62
2023-04-26T02:39:03.542Z,10.62
2023-04-26T02:41:33.335Z,10.62
2023-04-26T02:44:01.361Z,10.59
2023-04-26T02:46:28.529Z,10.59
2023-04-26T02:48:55.627Z,10.53
2023-04-26T02:51:23.193Z,10.62
2023-04-26T02:53:50.127Z,10.64
2023-04-26T02:56:19.579Z,10.62
2023-04-26T02:58:46.687Z,10.59
2023-04-26T03:01:15.107Z,10.62
2023-04-26T03:03:42.700Z,10.65
2023-04-26T03:06:10.208Z,10.68
2023-04-26T03:08:37.127Z,10.75
2023-04-26T03:11:04.285Z,10.80
2023-04-26T03:13:31.370Z,10.88
2023-04-26T03:15:58.932Z,10.91
2023-04-26T03:18:25.947Z,10.99
2023-04-26T03:20:53.341Z,11.00
2023-04-26T03:23:24.407Z,11.05
2023-04-26T03:25:52.359Z,11.07
2023-04-26T03:28:19.444Z,11.01
2023-04-26T03:30:46.864Z,11.04
2023-04-26T03:33:14.700Z,11.08
2023-04-26T03:35:41.710Z,11.12
2023-04-26T03:38:08.932Z,11.04
2023-04-26T03:40:36.183Z,11.22
2023-04-26T03:43:03.514Z,11.26
2023-04-26T03:45:30.646Z,11.29
2023-04-26T03:47:57.868Z,11.27
2023-04-26T03:50:24.961Z,11.39
2023-04-26T03:52:52.151Z,11.51
2023-04-26T03:55:19.133Z,11.55
2023-04-26T03:57:46.401Z,11.71
2023-04-26T04:00:14.483Z,11.80
2023-04-26T04:02:44.826Z,11.86
2023-04-26T04:05:19.544Z,11.87
2023-04-26T04:07:47.138Z,11.93
2023-04-26T04:10:14.192Z,11.93
2023-04-26T04:12:41.944Z,11.90
2023-04-26T04:15:10.237Z,11.96
2023-04-26T04:17:40.482Z,12.02
2023-04-26T04:20:08.091Z,12.00
2023-04-26T04:22:35.062Z,12.02
2023-04-26T04:25:03.661Z,12.03
2023-04-26T04:27:32.185Z,12.05
2023-04-26T04:29:59.316Z,12.03
2023-04-26T04:32:28.277Z,12.12
2023-04-26T04:34:55.288Z,12.13
2023-04-26T04:37:23.075Z,12.16
2023-04-26T04:39:49.861Z,12.18
2023-04-26T04:42:17.213Z,12.12
2023-04-26T04:44:45.910Z,12.24
2023-04-26T04:47:12.788Z,12.24
2023-04-26T04:49:39.882Z,12.27
2023-04-26T04:52:07.401Z,12.33
2023-04-26T04:54:34.841Z,12.38
2023-04-26T04:57:03.169Z,12.41
2023-04-26T04:59:31.661Z,12.37
2023-04-26T05:01:58.775Z,12.40
2023-04-26T05:04:26.113Z,12.44
2023-04-26T05:06:53.730Z,12.55
2023-04-26T05:09:22.849Z,12.61
2023-04-26T05:11:49.659Z,12.70
2023-04-26T05:14:16.541Z,12.81
2023-04-26T05:16:43.653Z,12.90
2023-04-26T05:19:11.422Z,12.98
2023-04-26T05:21:38.176Z,13.06
2023-04-26T05:24:06.656Z,13.14
2023-04-26T05:26:35.859Z,13.23
2023-04-26T05:29:41.778Z,13.32
2023-04-26T05:32:22.296Z,13.39
2023-04-26T05:34:56.088Z,13.47
2023-04-26T05:37:23.094Z,13.51
2023-04-26T05:39:50.168Z,13.50
2023-04-26T05:42:18.007Z,13.53
2023-04-26T05:44:45.808Z,13.56
2023-04-26T05:47:12.832Z,13.52
2023-04-26T05:49:39.629Z,13.54
2023-04-26T05:52:06.866Z,13.55
2023-04-26T05:54:34.225Z,13.49
2023-04-26T05:57:02.396Z,13.37
2023-04-26T05:59:32.973Z,13.33
2023-04-26T06:02:01.621Z,13.23
2023-04-26T06:04:29.111Z,13.11
2023-04-26T06:07:07.334Z,13.08
2023-04-26T06:09:34.403Z,12.99
2023-04-26T06:12:02.304Z,13.01
2023-04-26T06:14:30.946Z,13.28
2023-04-26T06:17:03.668Z,13.61
2023-04-26T06:19:31.326Z,13.89
2023-04-26T06:21:58.621Z,14.09
2023-04-26T06:24:26.179Z,14.51
2023-04-26T06:26:53.514Z,14.65
2023-04-26T06:29:21.850Z,14.65
2023-04-26T06:31:48.923Z,14.82
2023-04-26T06:34:17.847Z,14.81
2023-04-26T06:36:44.819Z,14.88
2023-04-26T06:39:11.857Z,14.90
2023-04-26T06:41:39.837Z,14.74
2023-04-26T06:44:09.923Z,14.70
2023-04-26T06:46:41.858Z,14.86
2023-04-26T06:49:09.700Z,14.91
2023-04-26T06:51:36.993Z,14.81
2023-04-26T06:54:05.421Z,14.94
2023-04-26T06:56:32.596Z,15.01
2023-04-26T06:59:04.328Z,14.84
2023-04-26T07:01:34.025Z,14.93
2023-04-26T07:04:03.908Z,15.04
2023-04-26T07:06:31.722Z,14.98
2023-04-26T07:09:01.207Z,15.17
2023-04-26T07:11:28.603Z,15.35
2023-04-26T07:13:55.862Z,15.49
2023-04-26T07:16:23.522Z,15.64
2023-04-26T07:18:51.547Z,15.59
2023-04-26T07:21:18.858Z,15.64
2023-04-26T07:23:46.093Z,15.83
2023-04-26T07:26:13.384Z,15.83
2023-04-26T07:28:40.379Z,15.87
2023-04-26T07:31:09.641Z,15.90
2023-04-26T07:33:39.151Z,16.04
2023-04-26T07:36:06.332Z,16.30
2023-04-26T07:38:33.260Z,16.26
2023-04-26T07:41:01.433Z,16.12
2023-04-26T07:43:30.359Z,16.06
2023-04-26T07:46:03.514Z,15.76
2023-04-26T07:48:30.681Z,15.90
2023-04-26T07:50:57.602Z,16.20
2023-04-26T07:53:24.570Z,16.48
2023-04-26T07:55:51.827Z,16.86
2023-04-26T07:58:19.643Z,16.79
2023-04-26T08:00:46.615Z,16.61
2023-04-26T08:03:18.132Z,16.33
2023-04-26T08:05:45.791Z,16.25
2023-04-26T08:08:12.967Z,15.99
2023-04-26T08:10:42.923Z,15.97
2023-04-26T08:13:09.737Z,16.03
2023-04-26T08:15:37.110Z,16.16
2023-04-26T08:18:04.713Z,16.24
2023-04-26T08:20:32.812Z,16.29
2023-04-26T08:23:00.237Z,16.55
2023-04-26T08:25:27.404Z,16.52
2023-04-26T08:27:54.451Z,16.63
2023-04-26T08:30:22.886Z,16.60
2023-04-26T08:32:49.844Z,16.64
2023-04-26T08:35:17.122Z,16.71
2023-04-26T08:37:44.536Z,16.72
2023-04-26T08:40:11.729Z,16.53
2023-04-26T08:42:44.252Z,16.59
2023-04-26T08:45:11.961Z,16.88
2023-04-26T08:47:47.510Z,16.91
2023-04-26T08:50:16.290Z,17.17
2023-04-26T08:52:44.457Z,17.52
2023-04-26T08:55:17.395Z,17.47
2023-04-26T08:57:48.721Z,17.05
2023-04-26T09:00:17.195Z,16.74
2023-04-26T09:02:51.919Z,16.67
2023-04-26T09:05:26.759Z,16.79
2023-04-26T09:08:00.864Z,16.98
2023-04-26T09:10:37.043Z,16.84
2023-04-26T09:13:06.824Z,16.79
2023-04-26T09:15:34.389Z,16.79
2023-04-26T09:18:21.388Z,17.03
2023-04-26T09:21:09.583Z,17.10
2023-04-26T09:23:37.244Z,16.90
2023-04-26T09:26:20.961Z,16.97
2023-04-26T09:28:48.708Z,17.11
2023-04-26T09:31:40.095Z,17.19
2023-04-26T09:34:10.843Z,17.04
2023-04-26T09:36:47.414Z,16.98
2023-04-26T09:39:14.847Z,17.06
2023-04-26T09:41:45.846Z,16.96
2023-04-26T09:44:23.464Z,16.99
2023-04-26T09:47:03.014Z,16.98
2023-04-26T09:49:52.544Z,16.91
2023-04-26T09:52:20.419Z,16.62
2023-04-26T09:54:52.157Z,16.52
2023-04-26T09:57:22.196Z,17.00
2023-04-26T09:59:55.762Z,17.26
2023-04-26T10:02:32.752Z,17.36
2023-04-26T10:05:01.027Z,17.57
2023-04-26T10:07:30.662Z,17.78
2023-04-26T10:09:58.709Z,17.86
2023-04-26T10:12:25.573Z,17.81
2023-04-26T10:14:52.665Z,17.79
2023-04-26T10:17:21.080Z,17.85
2023-04-26T10:19:52.642Z,17.91
2023-04-26T10:22:26.203Z,17.69
2023-04-26T10:24:55.065Z,17.41
2023-04-26T10:27:43.829Z,17.42
2023-04-26T10:30:12.384Z,17.62
2023-04-26T10:32:57.957Z,17.80
2023-04-26T10:35:27.003Z,17.70
2023-04-26T10:37:59.921Z,17.72
2023-04-26T10:40:41.241Z,17.92
2023-04-26T10:43:14.821Z,18.24
2023-04-26T10:45:42.777Z,18.25
2023-04-26T10:48:28.734Z,18.16
2023-04-26T10:51:05.652Z,18.08
2023-04-26T10:53:53.898Z,18.33
2023-04-26T10:56:24.073Z,18.41
2023-04-26T11:01:41.662Z,18.80
2023-04-26T11:04:13.058Z,18.91
2023-04-26T11:06:54.093Z,18.71
2023-04-26T11:09:40.968Z,18.49
2023-04-26T11:12:15.923Z,18.55
2023-04-26T11:14:43.526Z,18.25
2023-04-26T11:17:10.696Z,18.19
2023-04-26T11:19:37.932Z,18.25
2023-04-26T11:22:07.712Z,18.39
2023-04-26T11:24:41.818Z,18.33
2023-04-26T11:27:10.008Z,18.51
2023-04-26T11:29:37.466Z,18.60
2023-04-26T11:32:04.708Z,18.43
2023-04-26T11:34:35.914Z,18.26
2023-04-26T11:37:04.717Z,18.29
2023-04-26T11:39:35.831Z,18.64
2023-04-26T11:42:09.651Z,18.65
2023-04-26T11:44:37.851Z,18.32
2023-04-26T11:47:06.648Z,18.34
2023-04-26T11:49:36.536Z,18.70
2023-04-26T11:52:05.111Z,18.99
2023-04-26T11:54:37.961Z,19.19
2023-04-26T11:57:17.271Z,19.49
2023-04-26T11:59:46.201Z,19.42
2023-04-26T12:02:13.257Z,19.35
2023-04-26T12:04:41.431Z,19.75
2023-04-26T12:07:08.723Z,19.70
2023-04-26T12:09:40.363Z,19.64
2023-04-26T12:12:07.608Z,19.72
2023-04-26T12:14:39.142Z,19.34
2023-04-26T12:17:07.735Z,18.99
2023-04-26T12:19:36.773Z,18.70
2023-04-26T12:22:05.206Z,18.62
2023-04-26T12:24:39.329Z,18.65
2023-04-26T12:27:07.472Z,18.80
2023-04-26T12:29:35.466Z,19.14
2023-04-26T12:32:03.169Z,18.94
2023-04-26T12:34:31.019Z,18.82
2023-04-26T12:36:58.263Z,19.00
2023-04-26T12:39:25.433Z,19.10
2023-04-26T12:41:52.740Z,18.98
2023-04-26T12:44:21.953Z,19.01
2023-04-26T12:46:49.953Z,19.15
2023-04-26T12:49:17.067Z,18.76
2023-04-26T12:51:44.335Z,18.79
2023-04-26T12:54:11.244Z,18.49
2023-04-26T12:56:43.696Z,18.48
2023-04-26T12:59:11.124Z,18.63
2023-04-26T13:01:38.515Z,18.76
2023-04-26T13:04:06.483Z,18.70
2023-04-26T13:06:34.216Z,18.76
2023-04-26T13:09:01.691Z,18.63
2023-04-26T13:11:28.626Z,18.54
2023-04-26T13:13:55.639Z,18.54
2023-04-26T13:16:22.922Z,18.46
2023-04-26T13:19:10.942Z,18.52
2023-04-26T13:21:38.459Z,18.48
2023-04-26T13:24:06.117Z,18.50
2023-04-26T13:26:33.083Z,18.35
2023-04-26T13:29:00.063Z,18.05
2023-04-26T13:31:27.407Z,18.16
2023-04-26T13:33:54.772Z,18.31
2023-04-26T13:36:21.868Z,18.45
2023-04-26T13:38:48.874Z,18.49
2023-04-26T13:41:16.237Z,18.64
2023-04-26T13:43:43.374Z,18.59
2023-04-26T13:46:10.590Z,18.63
2023-04-26T13:48:37.831Z,18.54
2023-04-26T13:51:07.289Z,18.42
2023-04-26T13:53:34.957Z,18.41
2023-04-26T13:56:02.011Z,18.33
2023-04-26T13:58:28.910Z,18.49
2023-04-26T14:00:56.838Z,18.34
2023-04-26T14:03:23.953Z,18.36
2023-04-26T14:05:51.309Z,18.26
2023-04-26T14:08:18.501Z,18.44
2023-04-26T14:10:45.943Z,18.50
2023-04-26T14:13:12.872Z,18.40
2023-04-26T14:15:39.815Z,18.39
2023-04-26T14:18:06.897Z,18.43
2023-04-26T14:20:36.960Z,18.38
2023-04-26T14:23:04.289Z,18.13
2023-04-26T14:25:31.192Z,18.25
2023-04-26T14:27:58.204Z,18.31
2023-04-26T14:30:25.808Z,18.24
2023-04-26T14:32:52.805Z,18.21
2023-04-26T14:35:19.766Z,18.05
2023-04-26T14:37:46.706Z,18.25
2023-04-26T14:40:17.008Z,18.54
2023-04-26T14:42:46.283Z,18.55
2023-04-26T14:45:13.501Z,18.48
2023-04-26T14:47:41.212Z,18.49
2023-04-26T14:50:09.730Z,18.45
2023-04-26T14:52:37.404Z,18.27
2023-04-26T14:55:05.368Z,18.31
2023-04-26T14:57:33.024Z,18.29
2023-04-26T15:00:06.888Z,18.15
2023-04-26T15:02:34.360Z,18.03
2023-04-26T15:05:04.130Z,18.11
2023-04-26T15:07:34.581Z,18.21
2023-04-26T15:10:01.937Z,18.14
2023-04-26T15:12:29.079Z,18.14
2023-04-26T15:14:56.291Z,18.36
2023-04-26T15:17:23.392Z,18.39
2023-04-26T15:19:50.643Z,18.44
2023-04-26T15:22:17.940Z,18.53
2023-04-26T15:24:45.155Z,18.60
2023-04-26T15:27:12.765Z,18.62
2023-04-26T15:29:42.719Z,18.44
2023-04-26T15:32:09.808Z,18.65
2023-04-26T15:34:43.347Z,18.84
2023-04-26T15:37:10.715Z,18.95
2023-04-26T15:39:38.524Z,18.84
2023-04-26T15:42:06.099Z,18.71
2023-04-26T15:44:33.384Z,18.58
2023-04-26T15:47:03.767Z,18.42
2023-04-26T15:49:31.225Z,18.50
2023-04-26T15:52:02.365Z,18.32
2023-04-26T15:54:30.291Z,18.04
2023-04-26T15:56:57.131Z,18.11
2023-04-26T15:59:23.999Z,17.97
2023-04-26T16:01:51.196Z,18.04
2023-04-26T16:04:18.673Z,17.91
2023-04-26T16:06:45.571Z,17.56
2023-04-26T16:09:24.961Z,17.52
2023-04-26T16:11:53.102Z,17.16
2023-04-26T16:14:20.201Z,16.91
2023-04-26T16:16:47.169Z,16.70
2023-04-26T16:19:14.159Z,16.61
2023-04-26T16:21:41.274Z,16.58
2023-04-26T16:24:11.832Z,16.53
2023-04-26T16:26:38.818Z,16.24
2023-04-26T16:29:06.116Z,16.13
2023-04-26T16:31:33.346Z,16.02
2023-04-26T16:34:00.825Z,15.76
2023-04-26T16:36:27.911Z,15.73
2023-04-26T16:38:55.197Z,15.66
2023-04-26T16:41:23.344Z,15.60
2023-04-26T16:43:52.767Z,15.41
2023-04-26T16:46:21.111Z,15.24
2023-04-26T16:48:48.098Z,15.18
2023-04-26T16:51:15.160Z,14.99
2023-04-26T16:53:42.600Z,14.87
2023-04-26T16:56:09.753Z,14.85
2023-04-26T16:58:37.092Z,14.77
2023-04-26T17:01:04.787Z,14.73
2023-04-26T17:03:32.044Z,14.55
2023-04-26T17:06:00.186Z,14.51
2023-04-26T17:08:27.437Z,14.39
2023-04-26T17:10:54.545Z,14.39
2023-04-26T17:13:21.937Z,14.30
2023-04-26T17:16:01.948Z,14.26
2023-04-26T17:18:28.885Z,14.29
2023-04-26T17:20:56.467Z,14.34
2023-04-26T17:23:24.495Z,14.25
2023-04-26T17:25:53.252Z,14.14
2023-04-26T17:28:21.330Z,14.20
2023-04-26T17:30:48.273Z,14.21
2023-04-26T17:33:15.113Z,14.27
2023-04-26T17:35:42.044Z,14.21
2023-04-26T17:38:09.018Z,14.15
2023-04-26T17:40:36.094Z,14.10
2023-04-26T17:43:02.963Z,14.18
2023-04-26T17:45:29.885Z,14.16
2023-04-26T17:47:57.012Z,14.09
2023-04-26T17:50:24.092Z,14.14
2023-04-26T17:52:51.019Z,14.12
2023-04-26T17:55:18.124Z,14.18
2023-04-26T17:57:44.993Z,14.03
2023-04-26T18:00:12.757Z,14.16
2023-04-26T18:02:42.226Z,14.13
2023-04-26T18:05:10.092Z,14.08
2023-04-26T18:07:37.038Z,13.77
2023-04-26T18:10:04.416Z,13.66
2023-04-26T18:12:32.043Z,13.60
2023-04-26T18:15:00.054Z,13.57
2023-04-26T18:17:27.107Z,13.43
2023-04-26T18:19:54.238Z,13.21
2023-04-26T18:22:21.206Z,13.12
2023-04-26T18:24:48.122Z,13.00
2023-04-26T18:27:15.607Z,13.01
2023-04-26T18:29:42.609Z,12.91
2023-04-26T18:32:09.570Z,12.80
2023-04-26T18:34:36.496Z,12.79
2023-04-26T18:37:03.564Z,12.77
2023-04-26T18:39:30.711Z,12.63
2023-04-26T18:41:58.325Z,12.66
2023-04-26T18:44:43.692Z,12.74
2023-04-26T18:47:10.679Z,12.62
2023-04-26T18:49:38.136Z,12.61
2023-04-26T18:52:08.696Z,12.37
2023-04-26T18:54:39.228Z,12.32
2023-04-26T18:57:06.123Z,12.13
2023-04-26T18:59:32.887Z,11.86
2023-04-26T19:02:01.672Z,11.78
2023-04-26T19:04:28.953Z,11.74
2023-04-26T19:07:14.527Z,11.67
2023-04-26T19:09:52.942Z,11.50
2023-04-26T19:12:21.189Z,11.48
2023-04-26T19:15:25.814Z,11.55
2023-04-26T19:17:53.000Z,11.51
2023-04-26T19:23:10.986Z,11.46
2023-04-26T19:25:38.376Z,11.44
2023-04-26T19:28:05.863Z,11.35
2023-04-26T19:30:32.790Z,11.41
2023-04-26T19:32:59.772Z,11.37
2023-04-26T19:35:26.785Z,11.39
2023-04-26T19:37:53.737Z,11.34
2023-04-26T19:40:20.758Z,11.42
2023-04-26T19:42:48.003Z,11.35
2023-04-26T19:45:14.865Z,11.39
2023-04-26T19:47:42.783Z,11.35
2023-04-26T19:50:10.111Z,11.31
2023-04-26T19:52:37.065Z,11.31
2023-04-26T19:55:05.456Z,11.35
2023-04-26T19:57:44.985Z,11.33
2023-04-26T20:00:40.711Z,11.26
2023-04-26T20:06:20.539Z,11.00
2023-04-26T20:08:48.083Z,10.94
2023-04-26T20:11:16.914Z,10.91
2023-04-26T20:13:45.071Z,10.88
2023-04-26T20:16:12.642Z,10.86
2023-04-26T20:18:39.589Z,10.84
2023-04-26T20:21:06.524Z,10.86
2023-04-26T20:23:33.566Z,10.88
2023-04-26T20:26:00.500Z,10.79
2023-04-26T20:28:27.557Z,10.63
2023-04-26T20:30:54.400Z,10.54
2023-04-26T20:33:21.517Z,10.47
2023-04-26T20:35:48.594Z,10.50
2023-04-26T20:38:15.642Z,10.47
2023-04-26T20:40:42.605Z,10.41
2023-04-26T20:43:09.802Z,10.49
2023-04-26T20:45:37.190Z,10.49
2023-04-26T20:48:04.474Z,10.54
2023-04-26T20:50:31.609Z,10.52
2023-04-26T20:52:58.554Z,10.42
2023-04-26T20:55:25.417Z,10.48
2023-04-26T20:57:52.486Z,10.55
2023-04-26T21:00:19.656Z,10.51
2023-04-26T21:02:46.529Z,10.51
2023-04-26T21:05:13.604Z,10.51
2023-04-26T21:07:40.650Z,10.56
2023-04-26T21:10:08.073Z,10.56
2023-04-26T21:12:34.886Z,10.66
2023-04-26T21:15:01.962Z,10.61
2023-04-26T21:17:28.923Z,10.58
2023-04-26T21:19:56.207Z,10.59
2023-04-26T21:22:23.263Z,10.50
2023-04-26T21:24:53.115Z,10.49
2023-04-26T21:27:20.241Z,10.50
2023-04-26T21:29:47.128Z,10.47
2023-04-26T21:32:14.076Z,10.40
2023-04-26T21:34:41.098Z,10.35
2023-04-26T21:37:08.150Z,10.32
2023-04-26T21:39:35.174Z,10.35
2023-04-26T21:42:03.482Z,10.31
2023-04-26T21:44:30.400Z,10.34
2023-04-26T21:46:57.223Z,10.31
2023-04-26T21:49:24.557Z,10.42
2023-04-26T21:51:51.561Z,10.44
2023-04-26T21:54:18.397Z,10.42
2023-04-26T21:56:45.321Z,10.43
2023-04-26T21:59:14.198Z,10.37
2023-04-26T22:01:41.407Z,10.44
2023-04-26T22:04:08.511Z,10.47
2023-04-26T22:06:35.648Z,10.47
2023-04-26T22:09:02.623Z,10.45
2023-04-26T22:11:29.423Z,10.45
2023-04-26T22:13:56.665Z,10.43
2023-04-26T22:16:23.484Z,10.50
2023-04-26T22:18:50.308Z,10.39
2023-04-26T22:21:17.255Z,10.28
2023-04-26T22:23:44.231Z,10.27
2023-04-26T22:26:11.174Z,10.24
2023-04-26T22:28:38.169Z,10.23
2023-04-26T22:31:05.103Z,10.19
2023-04-26T22:33:31.893Z,10.17
2023-04-26T22:35:59.667Z,10.13
2023-04-26T22:38:27.004Z,10.05
2023-04-26T22:40:54.272Z,10.08
2023-04-26T22:43:23.090Z,10.03
2023-04-26T22:45:49.941Z,9.93
2023-04-26T22:48:17.001Z,9.87
2023-04-26T22:50:43.928Z,9.79
2023-04-26T22:53:11.078Z,9.74
2023-04-26T22:55:37.818Z,9.76
2023-04-26T22:58:04.724Z,9.77
2023-04-26T23:00:31.766Z,9.75
2023-04-26T23:02:58.678Z,9.75
2023-04-26T23:05:25.636Z,9.85
2023-04-26T23:07:52.723Z,9.83
2023-04-26T23:10:19.752Z,9.83
2023-04-26T23:12:46.680Z,9.80
2023-04-26T23:15:13.638Z,9.79
2023-04-26T23:17:41.912Z,9.72
2023-04-26T23:20:12.457Z,9.63
2023-04-26T23:22:43.313Z,9.57
2023-04-26T23:25:11.046Z,9.46
2023-04-26T23:27:38.487Z,9.44
2023-04-26T23:30:06.547Z,9.40
2023-04-26T23:32:33.455Z,9.30
2023-04-26T23:35:00.525Z,9.17
2023-04-26T23:37:27.496Z,9.14
2023-04-26T23:39:54.399Z,8.93
2023-04-26T23:42:21.220Z,8.82
2023-04-26T23:44:48.171Z,8.75
2023-04-26T23:47:15.054Z,8.66
2023-04-26T23:49:42.078Z,8.64
2023-04-26T23:52:08.921Z,8.57
2023-04-26T23:54:35.965Z,8.55
2023-04-26T23:57:04.150Z,8.39
2023-04-26T23:59:31.156Z,8.35
